Time;durP1;ratioP1;P1;durP2;ratioP2;P2;SDS_P1;SDS_P2;PMS_P1;PMS_P2;Temp;Humidity;BMP_temperature;BMP_pressure;BME280_temperature;BME280_humidity;BME280_pressure;Samples;Min_cycle;Max_cycle;Signal;HPM_P1;HPM_P2
2021/08/30 00:01:04;;;;;;;1.20;1.20;;;14.80;98.00;;;;;;5031861;28;20967;-70
2021/08/30 00:03:31;;;;;;;1.20;1.20;;;14.70;98.00;;;;;;5031539;28;20480;-71
2021/08/30 00:05:58;;;;;;;1.60;1.50;;;14.70;98.00;;;;;;5031564;28;20520;-72
2021/08/30 00:08:25;;;;;;;1.13;1.00;;;14.80;98.00;;;;;;5030884;28;20479;-71
2021/08/30 00:10:53;;;;;;;1.27;1.10;;;14.70;98.00;;;;;;5031422;28;20487;-71
2021/08/30 00:13:21;;;;;;;1.20;1.00;;;14.80;98.00;;;;;;5031360;28;20514;-72
2021/08/30 00:15:48;;;;;;;1.10;1.00;;;14.70;98.00;;;;;;5031484;28;20491;-72
2021/08/30 00:18:16;;;;;;;1.00;1.00;;;14.70;98.00;;;;;;5031543;28;20995;-71
2021/08/30 00:20:43;;;;;;;1.20;1.10;;;14.70;98.00;;;;;;5031441;28;20893;-71
2021/08/30 00:23:10;;;;;;;1.10;1.00;;;14.80;98.00;;;;;;5031366;28;20524;-71
2021/08/30 00:25:37;;;;;;;1.70;1.27;;;14.70;98.00;;;;;;5033175;28;20465;-73
2021/08/30 00:28:04;;;;;;;4.70;1.50;;;14.70;98.00;;;;;;5035111;28;20520;-72
2021/08/30 00:30:32;;;;;;;1.00;1.00;;;14.70;98.00;;;;;;5035390;28;20487;-73
2021/08/30 00:32:59;;;;;;;1.20;1.10;;;14.70;98.00;;;;;;5035452;28;20871;-71
2021/08/30 00:35:27;;;;;;;1.30;1.20;;;14.60;98.00;;;;;;5035006;28;20883;-72
2021/08/30 00:37:55;;;;;;;1.20;1.10;;;14.60;98.00;;;;;;5035107;28;20992;-70
2021/08/30 00:40:22;;;;;;;1.10;1.10;;;14.80;98.00;;;;;;5034297;28;20491;-70
2021/08/30 00:42:50;;;;;;;1.50;1.50;;;14.80;98.00;;;;;;5035425;28;20811;-72
2021/08/30 00:45:17;;;;;;;1.63;1.50;;;14.80;98.00;;;;;;5034997;28;20499;-72
2021/08/30 00:47:46;;;;;;;1.40;1.30;;;14.80;98.00;;;;;;5035053;28;20572;-73
2021/08/30 00:50:17;;;;;;;1.73;1.20;;;14.70;98.00;;;;;;5034684;28;20503;-71
2021/08/30 00:52:45;;;;;;;1.20;1.10;;;14.60;98.00;;;;;;5034684;28;20925;-71
2021/08/30 00:55:14;;;;;;;1.37;1.27;;;14.70;98.00;;;;;;5034871;28;20521;-73
2021/08/30 00:57:42;;;;;;;1.73;1.10;;;14.60;98.00;;;;;;5034622;28;20462;-72
2021/08/30 01:00:10;;;;;;;1.30;1.20;;;14.70;98.00;;;;;;5034652;28;20514;-71
2021/08/30 01:02:38;;;;;;;1.83;1.10;;;14.60;98.00;;;;;;5032949;28;20515;-72
2021/08/30 01:05:08;;;;;;;2.03;1.60;;;14.60;98.00;;;;;;5034469;28;20520;-72
2021/08/30 01:07:44;;;;;;;1.10;1.00;;;14.60;98.00;;;;;;5034410;28;20483;-72
2021/08/30 01:10:17;;;;;;;1.83;1.20;;;14.60;98.00;;;;;;5034580;28;20514;-72
2021/08/30 01:12:55;;;;;;;1.00;0.93;;;14.60;98.00;;;;;;5034673;28;20506;-71
2021/08/30 01:15:25;;;;;;;4.00;2.17;;;14.60;98.00;;;;;;5034431;28;20553;-72
2021/08/30 01:17:52;;;;;;;3.20;1.60;;;14.60;98.00;;;;;;5034319;28;20477;-71
2021/08/30 01:20:29;;;;;;;1.20;1.10;;;14.70;98.00;;;;;;5034417;28;20497;-71
2021/08/30 01:22:58;;;;;;;1.30;1.20;;;14.70;98.00;;;;;;5034147;28;20958;-72
2021/08/30 01:25:27;;;;;;;1.30;1.20;;;14.60;98.00;;;;;;5034207;28;20496;-72
2021/08/30 01:27:56;;;;;;;1.20;1.00;;;14.60;98.00;;;;;;5034076;28;20932;-71
2021/08/30 01:30:25;;;;;;;1.20;1.10;;;14.70;98.00;;;;;;5034139;28;20451;-71
2021/08/30 01:32:56;;;;;;;1.20;1.10;;;14.60;98.00;;;;;;5033817;28;20500;-71
2021/08/30 01:35:26;;;;;;;2.80;1.27;;;14.60;98.00;;;;;;5033626;28;20456;-71
2021/08/30 01:37:56;;;;;;;1.47;1.20;;;14.60;98.00;;;;;;5032193;28;20481;-72
2021/08/30 01:40:27;;;;;;;1.00;0.93;;;14.60;98.00;;;;;;5032732;28;20487;-72
2021/08/30 01:42:57;;;;;;;1.10;1.00;;;14.70;98.00;;;;;;5033778;28;20493;-71
2021/08/30 01:45:25;;;;;;;1.60;1.47;;;14.80;98.00;;;;;;5033987;28;20470;-71
2021/08/30 01:47:59;;;;;;;1.30;1.20;;;14.80;98.00;;;;;;5033666;28;20516;-70
2021/08/30 01:50:28;;;;;;;1.20;1.10;;;14.80;98.00;;;;;;5032691;28;20452;-71
2021/08/30 01:52:57;;;;;;;1.30;1.30;;;14.80;98.00;;;;;;5033721;28;20465;-71
2021/08/30 01:55:34;;;;;;;3.20;1.63;;;14.70;98.00;;;;;;5033794;28;20492;-71
2021/08/30 02:00:49;;;;;;;2.23;1.40;;;14.70;98.00;;;;;;5033776;28;20446;-71
2021/08/30 02:03:20;;;;;;;1.00;0.97;;;14.70;98.00;;;;;;5033680;28;20475;-72
2021/08/30 02:05:49;;;;;;;1.13;1.10;;;14.60;98.00;;;;;;5033321;28;21031;-71
2021/08/30 02:08:16;;;;;;;1.20;1.10;;;14.60;98.00;;;;;;5033721;28;20597;-71
2021/08/30 02:10:44;;;;;;;1.30;1.30;;;14.60;98.00;;;;;;5033300;28;20494;-71
2021/08/30 02:13:12;;;;;;;2.53;1.13;;;14.70;98.00;;;;;;5033401;28;20474;-71
2021/08/30 02:15:39;;;;;;;1.37;1.27;;;14.70;98.00;;;;;;5033525;28;21005;-71
2021/08/30 02:18:15;;;;;;;1.20;1.10;;;14.60;98.00;;;;;;5033066;28;20598;-70
2021/08/30 02:20:48;;;;;;;1.83;1.50;;;14.60;98.00;;;;;;5033296;28;20874;-71
2021/08/30 02:23:18;;;;;;;1.30;1.20;;;14.70;98.00;;;;;;5033294;28;20463;-71
2021/08/30 02:25:47;;;;;;;1.07;1.03;;;14.70;98.00;;;;;;5033016;28;20962;-71
2021/08/30 02:28:14;;;;;;;1.00;1.00;;;14.70;98.00;;;;;;5031627;28;20556;-71
2021/08/30 02:30:41;;;;;;;1.67;1.27;;;14.70;98.00;;;;;;5033071;28;20458;-71
2021/08/30 02:33:11;;;;;;;1.30;1.20;;;14.70;98.00;;;;;;5032790;28;20527;-73
2021/08/30 02:35:42;;;;;;;1.93;1.30;;;14.70;98.00;;;;;;5032882;28;20526;-72
2021/08/30 02:38:12;;;;;;;1.10;1.03;;;14.60;98.00;;;;;;5032758;28;20519;-71
2021/08/30 02:40:41;;;;;;;1.93;1.13;;;14.60;98.00;;;;;;5032850;28;20455;-72
2021/08/30 02:43:10;;;;;;;1.40;1.30;;;14.70;98.00;;;;;;5032625;28;20530;-71
2021/08/30 02:45:38;;;;;;;2.73;1.33;;;14.60;98.00;;;;;;5032728;28;20565;-72
2021/08/30 02:48:06;;;;;;;1.30;1.20;;;14.70;98.00;;;;;;5032326;28;20938;-72
2021/08/30 02:50:34;;;;;;;1.10;1.10;;;14.60;98.00;;;;;;5032375;28;20543;-71
2021/08/30 02:53:04;;;;;;;1.40;1.30;;;14.60;98.00;;;;;;5032497;28;20460;-71
2021/08/30 02:55:33;;;;;;;1.00;0.93;;;14.60;98.00;;;;;;5032609;28;20521;-71
2021/08/30 02:58:05;;;;;;;1.50;1.03;;;14.70;98.00;;;;;;5032499;28;20951;-73
2021/08/30 03:00:33;;;;;;;1.33;1.23;;;14.70;98.00;;;;;;5032410;28;20474;-71
2021/08/30 03:03:01;;;;;;;1.20;1.10;;;14.70;98.00;;;;;;5032275;28;20451;-71
2021/08/30 03:05:29;;;;;;;1.30;1.27;;;14.70;98.00;;;;;;5032361;28;20490;-71
2021/08/30 03:07:57;;;;;;;1.83;1.20;;;14.60;98.00;;;;;;5032279;28;21045;-73
2021/08/30 03:10:24;;;;;;;1.30;1.20;;;14.60;98.00;;;;;;5032009;28;20451;-71
2021/08/30 03:12:55;;;;;;;1.00;1.00;;;14.50;98.00;;;;;;5030342;28;20498;-70
2021/08/30 03:15:25;;;;;;;1.00;0.97;;;14.60;98.00;;;;;;5031427;28;20500;-71
2021/08/30 03:17:53;;;;;;;1.10;1.10;;;14.70;98.00;;;;;;5031318;28;20480;-72
2021/08/30 03:20:28;;;;;;;1.00;1.00;;;14.70;98.00;;;;;;5032458;28;20479;-71
2021/08/30 03:22:58;;;;;;;1.00;0.90;;;14.60;98.00;;;;;;5032434;28;20511;-71
2021/08/30 03:25:33;;;;;;;1.10;1.00;;;14.60;98.00;;;;;;5032206;28;20465;-71
2021/08/30 03:28:03;;;;;;;1.20;1.10;;;14.50;98.00;;;;;;5032373;28;20493;-71
2021/08/30 03:30:31;;;;;;;1.33;1.10;;;14.50;98.00;;;;;;5032161;28;20462;-72
2021/08/30 03:32:59;;;;;;;1.10;1.07;;;14.50;98.00;;;;;;5031638;28;20512;-72
2021/08/30 03:35:28;;;;;;;1.00;0.90;;;14.40;98.00;;;;;;5031862;28;20460;-71
2021/08/30 03:37:56;;;;;;;1.00;1.00;;;14.50;98.00;;;;;;5031724;28;20534;-72
2021/08/30 03:40:24;;;;;;;1.60;1.50;;;14.50;98.00;;;;;;5031598;28;20976;-72
2021/08/30 03:42:52;;;;;;;1.00;1.00;;;14.40;98.00;;;;;;5031932;28;20492;-72
2021/08/30 03:45:21;;;;;;;1.50;1.17;;;14.50;98.00;;;;;;5031755;28;20463;-71
2021/08/30 03:47:50;;;;;;;1.27;1.23;;;14.50;98.00;;;;;;5031366;28;20520;-72
2021/08/30 03:50:18;;;;;;;1.20;1.10;;;14.50;98.00;;;;;;5030339;28;20514;-71
2021/08/30 03:52:46;;;;;;;1.30;1.20;;;14.50;98.00;;;;;;5031585;28;20455;-71
2021/08/30 03:55:14;;;;;;;2.20;1.40;;;14.40;98.00;;;;;;5031765;28;20797;-71
2021/08/30 03:57:41;;;;;;;1.20;1.10;;;14.40;98.00;;;;;;5031566;28;20509;-72
2021/08/30 04:00:10;;;;;;;1.00;1.00;;;14.40;98.00;;;;;;5036086;28;20466;-72
2021/08/30 04:02:41;;;;;;;1.10;1.00;;;14.40;98.00;;;;;;5038041;28;20459;-71
2021/08/30 04:05:10;;;;;;;1.40;1.30;;;14.40;98.00;;;;;;5038192;28;20458;-72
2021/08/30 04:07:38;;;;;;;1.00;0.97;;;14.40;98.00;;;;;;5037933;28;20490;-71
2021/08/30 04:10:06;;;;;;;1.40;1.30;;;14.40;98.00;;;;;;5038153;28;20492;-71
2021/08/30 04:12:33;;;;;;;1.00;0.90;;;14.40;98.00;;;;;;5037973;28;20828;-71
2021/08/30 04:15:01;;;;;;;1.40;1.13;;;14.50;98.00;;;;;;5038134;28;20463;-71
2021/08/30 04:17:29;;;;;;;2.50;1.23;;;14.50;98.00;;;;;;5037860;28;20460;-72
2021/08/30 04:20:10;;;;;;;1.10;1.10;;;14.50;98.00;;;;;;5038178;28;20495;-71
2021/08/30 04:22:37;;;;;;;1.30;1.20;;;14.50;98.00;;;;;;5037895;28;20459;-71
2021/08/30 04:25:05;;;;;;;1.00;0.90;;;14.50;98.00;;;;;;5036906;28;21028;-71
2021/08/30 04:27:32;;;;;;;1.27;1.00;;;14.50;98.00;;;;;;5038173;28;20521;-72
2021/08/30 04:29:59;;;;;;;2.07;1.27;;;14.50;98.00;;;;;;5038137;28;20788;-71
2021/08/30 04:32:31;;;;;;;1.10;1.10;;;14.50;98.00;;;;;;5037861;28;20486;-72
2021/08/30 04:34:59;;;;;;;1.00;0.90;;;14.70;98.00;;;;;;5038129;28;20572;-71
2021/08/30 04:37:27;;;;;;;1.20;1.00;;;14.60;98.00;;;;;;5038185;28;20493;-73
2021/08/30 04:39:54;;;;;;;1.00;0.97;;;14.50;98.00;;;;;;5038339;28;20879;-71
2021/08/30 04:42:21;;;;;;;1.30;1.23;;;14.50;98.00;;;;;;5038073;28;20460;-70
2021/08/30 04:44:49;;;;;;;1.40;1.37;;;14.50;98.00;;;;;;5037357;28;20664;-72
2021/08/30 04:47:18;;;;;;;2.30;1.40;;;14.50;98.00;;;;;;5037498;28;20469;-72
2021/08/30 04:49:49;;;;;;;1.00;1.00;;;14.50;98.00;;;;;;5038093;28;20895;-71
2021/08/30 04:52:17;;;;;;;1.00;1.00;;;14.50;98.00;;;;;;5037407;28;20522;-71
2021/08/30 04:54:44;;;;;;;1.30;1.20;;;14.60;98.00;;;;;;5037742;28;20475;-71
2021/08/30 04:57:11;;;;;;;1.10;1.00;;;14.70;98.00;;;;;;5037651;28;20485;-72
2021/08/30 04:59:38;;;;;;;1.33;1.23;;;14.60;98.00;;;;;;5037730;28;20487;-71
2021/08/30 05:02:05;;;;;;;1.30;1.07;;;14.60;98.00;;;;;;5037450;28;21124;-72
2021/08/30 05:04:32;;;;;;;1.20;1.20;;;14.60;98.00;;;;;;5037596;28;20490;-72
2021/08/30 05:06:59;;;;;;;1.87;1.10;;;14.60;98.00;;;;;;5037391;28;20494;-71
2021/08/30 05:09:28;;;;;;;1.33;1.23;;;14.60;98.00;;;;;;5037293;28;21107;-72
2021/08/30 05:11:54;;;;;;;1.10;1.10;;;14.50;98.00;;;;;;5034661;28;20451;-71
2021/08/30 05:14:22;;;;;;;1.40;1.00;;;14.60;98.00;;;;;;5034373;28;20495;-71
2021/08/30 05:16:49;;;;;;;1.20;1.20;;;14.60;98.00;;;;;;5033963;28;20453;-72
2021/08/30 05:19:16;;;;;;;1.10;1.10;;;14.70;98.00;;;;;;5034529;28;21017;-72
2021/08/30 05:21:43;;;;;;;1.63;1.53;;;14.80;98.00;;;;;;5034249;28;20943;-71
2021/08/30 05:24:10;;;;;;;1.00;1.00;;;14.80;98.00;;;;;;5034205;28;20498;-71
2021/08/30 05:26:39;;;;;;;1.40;1.30;;;14.70;98.00;;;;;;5034035;28;20463;-71
2021/08/30 05:29:06;;;;;;;1.80;1.57;;;14.60;98.00;;;;;;5034089;28;20518;-70
2021/08/30 05:31:33;;;;;;;1.27;1.10;;;14.60;98.00;;;;;;5033913;28;20505;-71
2021/08/30 05:34:00;;;;;;;1.00;1.00;;;14.70;98.00;;;;;;5032868;28;20460;-71
2021/08/30 05:36:28;;;;;;;1.40;1.30;;;14.80;98.00;;;;;;5034014;28;20520;-72
2021/08/30 05:38:56;;;;;;;1.10;1.00;;;14.80;98.00;;;;;;5034030;28;20886;-72
2021/08/30 05:41:24;;;;;;;2.17;1.20;;;14.70;98.00;;;;;;5034065;28;20547;-71
2021/08/30 05:43:53;;;;;;;1.00;0.90;;;14.80;98.00;;;;;;5034048;28;20462;-71
2021/08/30 05:46:20;;;;;;;1.30;1.30;;;14.90;98.00;;;;;;5034133;28;20490;-72
2021/08/30 05:48:49;;;;;;;1.27;1.10;;;15.00;98.00;;;;;;5033777;28;20576;-72
2021/08/30 05:51:16;;;;;;;1.20;1.10;;;15.00;98.00;;;;;;5033871;28;20456;-71
2021/08/30 05:53:44;;;;;;;3.00;1.53;;;15.00;98.00;;;;;;5033906;28;20491;-71
2021/08/30 05:56:11;;;;;;;1.00;1.00;;;15.00;98.00;;;;;;5033871;28;20965;-71
2021/08/30 05:58:38;;;;;;;1.10;1.10;;;15.00;98.00;;;;;;5032602;28;20525;-71
2021/08/30 06:01:07;;;;;;;1.77;1.27;;;15.00;98.00;;;;;;5033667;28;20460;-71
2021/08/30 06:03:34;;;;;;;1.13;1.10;;;15.10;98.00;;;;;;5033850;28;20515;-71
2021/08/30 06:06:01;;;;;;;1.10;1.10;;;15.20;98.00;;;;;;5033764;28;20539;-71
2021/08/30 06:08:28;;;;;;;1.30;1.20;;;15.30;98.00;;;;;;5033175;28;20524;-73
2021/08/30 06:10:57;;;;;;;1.17;1.10;;;15.40;98.00;;;;;;5032413;28;20459;-71
2021/08/30 06:13:26;;;;;;;1.20;1.10;;;15.40;98.00;;;;;;5033403;28;20464;-71
2021/08/30 06:15:53;;;;;;;1.00;1.00;;;15.30;98.00;;;;;;5033274;28;20457;-71
2021/08/30 06:18:22;;;;;;;1.53;1.30;;;15.30;98.00;;;;;;5033345;28;20488;-71
2021/08/30 06:20:49;;;;;;;1.10;1.00;;;15.40;98.00;;;;;;5033033;28;20459;-72
2021/08/30 06:23:16;;;;;;;1.50;1.30;;;15.40;98.00;;;;;;5032747;28;20868;-71
2021/08/30 06:25:43;;;;;;;1.23;1.13;;;15.40;98.00;;;;;;5033088;28;20460;-70
2021/08/30 06:28:09;;;;;;;1.40;1.40;;;15.40;98.00;;;;;;5032864;28;20863;-72
2021/08/30 06:30:36;;;;;;;1.77;1.73;;;15.40;98.00;;;;;;5032946;28;20964;-72
2021/08/30 06:33:04;;;;;;;2.07;1.97;;;15.50;98.00;;;;;;5032982;28;20517;-71
2021/08/30 06:35:32;;;;;;;1.70;1.20;;;15.50;98.00;;;;;;5032959;28;20504;-72
2021/08/30 06:37:59;;;;;;;1.27;1.23;;;15.60;98.00;;;;;;5031559;28;20466;-72
2021/08/30 06:40:26;;;;;;;1.43;1.43;;;15.70;98.00;;;;;;5032868;28;20494;-71
2021/08/30 06:42:53;;;;;;;1.93;1.83;;;15.80;98.00;;;;;;5032828;28;20962;-72
2021/08/30 06:45:23;;;;;;;1.50;1.47;;;15.80;98.00;;;;;;5032893;28;20514;-72
2021/08/30 06:47:51;;;;;;;1.20;1.00;;;15.80;98.00;;;;;;5032391;28;20504;-72
2021/08/30 06:50:18;;;;;;;1.97;1.17;;;15.80;98.00;;;;;;5032570;28;20464;-71
2021/08/30 06:52:46;;;;;;;1.20;1.00;;;15.90;98.00;;;;;;5032537;28;20897;-72
2021/08/30 06:55:13;;;;;;;1.00;1.00;;;15.90;98.00;;;;;;5032387;28;20498;-72
2021/08/30 06:57:43;;;;;;;1.67;1.20;;;15.90;98.00;;;;;;5032539;28;20460;-73
2021/08/30 07:00:11;;;;;;;1.30;1.27;;;15.90;98.00;;;;;;5032356;28;20468;-72
2021/08/30 07:02:38;;;;;;;1.57;1.40;;;15.90;98.00;;;;;;5032273;28;20456;-72
2021/08/30 07:05:06;;;;;;;1.40;1.30;;;15.90;98.00;;;;;;5032428;28;20515;-72
2021/08/30 07:07:33;;;;;;;1.10;1.00;;;16.00;98.00;;;;;;5032431;28;20573;-72
2021/08/30 07:10:02;;;;;;;1.97;1.47;;;15.90;98.00;;;;;;5032280;28;20522;-73
2021/08/30 07:12:30;;;;;;;2.13;1.10;;;15.90;98.00;;;;;;5032411;28;21007;-73
2021/08/30 07:14:57;;;;;;;1.10;1.10;;;16.00;98.00;;;;;;5031973;28;20959;-72
2021/08/30 07:17:24;;;;;;;1.37;1.30;;;16.00;98.00;;;;;;5032372;28;21083;-72
2021/08/30 07:19:51;;;;;;;1.83;1.20;;;16.10;98.00;;;;;;5032199;28;20480;-73
2021/08/30 07:22:19;;;;;;;3.30;1.80;;;16.20;98.00;;;;;;5030713;28;20462;-72
2021/08/30 07:24:46;;;;;;;1.50;1.40;;;16.20;98.00;;;;;;5032382;28;20496;-71
2021/08/30 07:27:14;;;;;;;1.10;1.10;;;16.20;98.00;;;;;;5032035;28;20454;-73
2021/08/30 07:29:41;;;;;;;1.40;1.30;;;16.20;98.00;;;;;;5031862;28;20522;-72
2021/08/30 07:32:08;;;;;;;1.87;1.87;;;16.20;98.00;;;;;;5031772;28;20501;-71
2021/08/30 07:34:36;;;;;;;1.50;1.43;;;16.20;98.00;;;;;;5030824;28;20444;-72
2021/08/30 07:37:03;;;;;;;1.50;1.30;;;16.20;98.00;;;;;;5031864;28;20497;-72
2021/08/30 07:39:30;;;;;;;1.50;1.37;;;16.20;98.00;;;;;;5029413;28;20869;-71
2021/08/30 07:41:57;;;;;;;1.57;1.30;;;16.20;98.00;;;;;;5034518;28;20456;-72
2021/08/30 07:44:26;;;;;;;1.97;1.60;;;16.10;98.00;;;;;;5035484;28;21050;-72
2021/08/30 07:46:53;;;;;;;1.47;1.43;;;16.20;98.00;;;;;;5030474;28;20462;-72
2021/08/30 07:49:20;;;;;;;1.50;1.40;;;16.30;98.00;;;;;;5028849;28;20529;-72
2021/08/30 07:51:48;;;;;;;1.40;1.20;;;16.50;98.00;;;;;;5044315;28;20488;-71
2021/08/30 07:54:16;;;;;;;1.43;1.33;;;16.50;98.00;;;;;;5038233;28;21109;-72
2021/08/30 07:56:47;;;;;;;1.97;1.87;;;16.60;98.00;;;;;;5038872;28;20465;-71
2021/08/30 07:59:14;;;;;;;1.10;1.00;;;16.60;98.00;;;;;;5038548;28;20546;-72
2021/08/30 08:01:43;;;;;;;2.13;1.40;;;16.60;98.00;;;;;;5029382;28;20536;-72
2021/08/30 08:04:10;;;;;;;1.50;1.20;;;16.50;98.00;;;;;;5033131;28;20496;-71
2021/08/30 08:06:37;;;;;;;1.20;1.10;;;16.50;98.00;;;;;;5038333;28;20515;-72
2021/08/30 08:09:05;;;;;;;3.27;1.63;;;16.40;98.00;;;;;;5045104;28;20527;-72
2021/08/30 08:11:32;;;;;;;1.17;1.13;;;16.50;98.00;;;;;;5034956;28;20908;-72
2021/08/30 08:13:59;;;;;;;1.10;1.10;;;16.50;98.00;;;;;;5041206;28;20501;-72
2021/08/30 08:16:26;;;;;;;1.80;1.57;;;16.60;98.00;;;;;;5035243;28;21253;-73
2021/08/30 08:18:55;;;;;;;3.30;1.40;;;16.60;98.00;;;;;;5032182;28;20462;-72
2021/08/30 08:21:23;;;;;;;1.67;1.33;;;16.70;98.00;;;;;;5043433;28;20473;-71
2021/08/30 08:23:51;;;;;;;1.50;1.20;;;16.60;98.00;;;;;;5030831;28;20531;-71
2021/08/30 08:26:21;;;;;;;1.83;1.37;;;16.50;98.00;;;;;;5030066;28;20494;-72
2021/08/30 08:28:49;;;;;;;1.57;1.43;;;16.50;98.00;;;;;;5040426;28;20501;-72
2021/08/30 08:31:16;;;;;;;1.40;1.30;;;16.60;98.00;;;;;;5037519;28;20532;-72
2021/08/30 08:33:44;;;;;;;1.10;1.00;;;16.70;98.00;;;;;;5043798;28;20492;-73
2021/08/30 08:36:13;;;;;;;1.37;1.00;;;16.70;98.00;;;;;;5035327;28;20468;-71
2021/08/30 08:38:40;;;;;;;1.20;1.00;;;16.60;98.00;;;;;;5037991;28;20527;-72
2021/08/30 08:41:07;;;;;;;1.63;1.30;;;16.60;98.00;;;;;;5034966;28;20966;-74
2021/08/30 08:43:35;;;;;;;1.17;1.13;;;16.50;98.00;;;;;;5037608;28;20549;-73
2021/08/30 08:46:04;;;;;;;1.40;1.20;;;16.40;98.00;;;;;;5040045;28;20492;-73
2021/08/30 08:48:31;;;;;;;1.10;1.10;;;16.40;98.00;;;;;;5040969;28;20492;-73
2021/08/30 08:50:58;;;;;;;1.20;1.10;;;16.50;98.00;;;;;;5035097;28;20571;-72
2021/08/30 08:53:27;;;;;;;1.30;1.20;;;16.50;98.00;;;;;;5041757;28;20868;-73
2021/08/30 08:55:54;;;;;;;1.20;1.20;;;16.40;98.00;;;;;;5033258;28;20502;-72
2021/08/30 08:58:23;;;;;;;1.20;1.20;;;16.50;98.00;;;;;;5041296;28;20532;-72
2021/08/30 09:01:02;;;;;;;1.10;1.00;;;16.50;98.00;;;;;;5033135;28;20856;-72
2021/08/30 09:03:29;;;;;;;1.30;1.20;;;16.50;98.00;;;;;;5032603;28;20459;-73
2021/08/30 09:06:04;;;;;;;1.10;1.00;;;16.60;98.00;;;;;;5032830;28;20516;-73
2021/08/30 09:08:35;;;;;;;1.03;1.03;;;16.70;98.00;;;;;;5039624;28;20468;-74
2021/08/30 09:11:03;;;;;;;1.30;1.30;;;16.80;98.00;;;;;;5032895;28;20460;-73
2021/08/30 09:13:32;;;;;;;1.57;1.53;;;16.90;98.00;;;;;;5034493;28;20472;-73
2021/08/30 09:15:59;;;;;;;1.30;1.23;;;16.80;98.00;;;;;;5049808;28;20956;-73
2021/08/30 09:18:29;;;;;;;1.10;1.10;;;16.90;98.00;;;;;;5041644;28;20464;-74
2021/08/30 09:20:57;;;;;;;1.30;1.23;;;17.00;98.00;;;;;;5039387;28;20464;-74
2021/08/30 09:23:29;;;;;;;1.10;1.07;;;17.00;98.00;;;;;;5040238;28;20551;-73
2021/08/30 09:26:01;;;;;;;2.60;1.60;;;17.10;98.00;;;;;;5040903;28;20971;-74
2021/08/30 09:28:30;;;;;;;1.53;1.33;;;17.30;98.00;;;;;;5035307;28;20469;-74
2021/08/30 09:30:57;;;;;;;1.10;1.00;;;17.50;98.00;;;;;;5038263;28;20535;-74
2021/08/30 09:33:25;;;;;;;1.20;1.10;;;17.60;98.00;;;;;;5042679;28;20462;-73
2021/08/30 09:36:00;;;;;;;1.30;1.30;;;17.40;98.00;;;;;;5037125;28;20462;-73
2021/08/30 09:38:28;;;;;;;1.50;1.30;;;17.30;98.00;;;;;;5044068;28;20530;-74
2021/08/30 09:41:09;;;;;;;2.23;1.77;;;17.40;98.00;;;;;;5045587;28;20556;-73
2021/08/30 09:43:36;;;;;;;1.37;1.30;;;17.50;98.00;;;;;;5033083;28;20486;-74
2021/08/30 09:46:04;;;;;;;1.70;1.43;;;17.60;98.00;;;;;;5036870;28;20894;-74
2021/08/30 09:48:34;;;;;;;1.20;1.20;;;17.70;98.00;;;;;;5040175;28;20543;-73
2021/08/30 09:51:02;;;;;;;1.33;1.30;;;17.80;98.00;;;;;;5033233;28;20505;-73
2021/08/30 09:53:31;;;;;;;1.70;1.60;;;17.80;98.00;;;;;;5046099;28;20497;-73
2021/08/30 09:56:00;;;;;;;2.90;1.57;;;17.80;98.00;;;;;;5048072;28;20514;-74
2021/08/30 09:58:31;;;;;;;2.63;1.70;;;17.80;98.00;;;;;;5046729;28;20531;-75
2021/08/30 10:01:01;;;;;;;1.93;1.60;;;17.80;98.00;;;;;;5048735;28;20557;-74
2021/08/30 10:03:38;;;;;;;1.17;1.13;;;17.80;98.00;;;;;;5042452;28;20995;-73
2021/08/30 10:06:06;;;;;;;1.10;1.00;;;17.80;98.00;;;;;;5031325;28;20536;-73
2021/08/30 10:08:35;;;;;;;1.33;1.20;;;17.80;98.00;;;;;;5037871;28;20511;-73
2021/08/30 10:11:03;;;;;;;1.30;1.10;;;17.70;98.00;;;;;;5040339;28;20553;-72
2021/08/30 10:13:31;;;;;;;1.87;1.60;;;17.50;98.00;;;;;;5038839;28;21010;-73
2021/08/30 10:16:07;;;;;;;1.20;1.20;;;17.30;98.00;;;;;;5031768;28;20921;-73
2021/08/30 10:18:35;;;;;;;1.20;1.20;;;17.40;98.00;;;;;;5032424;28;20540;-73
2021/08/30 10:21:14;;;;;;;2.00;1.37;;;17.40;98.00;;;;;;5039245;28;20823;-74
2021/08/30 10:23:41;;;;;;;1.80;1.43;;;17.50;98.00;;;;;;5039642;28;20461;-76
2021/08/30 10:26:12;;;;;;;1.50;1.47;;;17.50;98.00;;;;;;5032245;28;20520;-75
2021/08/30 10:28:44;;;;;;;1.43;1.40;;;17.50;98.00;;;;;;5030495;28;20486;-76
2021/08/30 10:31:17;;;;;;;2.30;1.97;;;17.40;98.00;;;;;;5038768;28;20509;-73
2021/08/30 10:33:50;;;;;;;1.40;1.30;;;17.40;98.00;;;;;;5034246;28;20458;-73
2021/08/30 10:36:19;;;;;;;1.60;1.37;;;17.60;98.00;;;;;;5043951;28;20470;-73
2021/08/30 10:38:58;;;;;;;1.50;1.50;;;17.70;98.00;;;;;;5041802;28;20799;-73
2021/08/30 10:41:30;;;;;;;1.50;1.43;;;17.80;98.00;;;;;;5036308;28;20549;-74
2021/08/30 10:44:07;;;;;;;1.33;1.10;;;17.70;98.00;;;;;;5039329;28;20545;-74
2021/08/30 10:46:39;;;;;;;1.40;1.20;;;17.70;98.00;;;;;;5044687;28;21030;-74
2021/08/30 10:49:11;;;;;;;1.83;1.43;;;17.60;98.00;;;;;;5047438;28;20880;-75
2021/08/30 10:51:42;;;;;;;1.60;1.50;;;17.60;98.00;;;;;;5045154;28;20462;-74
2021/08/30 10:54:10;;;;;;;1.37;1.20;;;17.60;98.00;;;;;;5038751;28;20460;-74
2021/08/30 10:56:38;;;;;;;1.30;1.20;;;17.70;98.00;;;;;;5038684;28;20493;-74
2021/08/30 10:59:08;;;;;;;1.37;1.30;;;17.70;98.00;;;;;;5047733;28;20465;-74
2021/08/30 11:01:39;;;;;;;1.30;1.27;;;17.80;98.00;;;;;;5038580;28;20789;-73
2021/08/30 11:04:08;;;;;;;2.80;1.60;;;18.00;98.00;;;;;;5031791;28;20538;-74
2021/08/30 11:06:39;;;;;;;1.20;1.17;;;18.10;98.00;;;;;;5039939;28;20461;-74
2021/08/30 11:09:06;;;;;;;1.30;1.30;;;18.30;98.00;;;;;;5044936;28;20948;-73
2021/08/30 11:11:34;;;;;;;1.57;1.30;;;18.30;98.00;;;;;;5047380;28;20453;-73
2021/08/30 11:14:08;;;;;;;1.40;1.30;;;18.40;98.00;;;;;;5040406;28;20944;-73
2021/08/30 11:16:36;;;;;;;1.20;1.10;;;18.40;98.00;;;;;;5031287;28;20454;-74
2021/08/30 11:19:06;;;;;;;1.10;1.10;;;18.40;98.00;;;;;;5038821;28;20493;-73
2021/08/30 11:21:43;;;;;;;2.13;1.30;;;18.50;98.00;;;;;;5039817;28;20523;-74
2021/08/30 11:24:26;;;;;;;1.20;1.20;;;18.30;98.00;;;;;;5038365;28;20948;-74
2021/08/30 11:26:53;;;;;;;1.20;1.10;;;18.30;98.00;;;;;;5047855;28;20890;-74
2021/08/30 11:29:25;;;;;;;1.87;1.47;;;18.20;98.00;;;;;;5045331;28;21042;-74
2021/08/30 11:31:53;;;;;;;1.50;1.40;;;18.30;98.00;;;;;;5037768;28;20558;-74
2021/08/30 11:34:26;;;;;;;2.37;1.53;;;18.40;98.00;;;;;;5037103;28;20963;-74
2021/08/30 11:36:56;;;;;;;1.40;1.17;;;18.30;98.00;;;;;;5031202;28;20457;-74
2021/08/30 11:39:24;;;;;;;1.50;1.50;;;18.30;98.00;;;;;;5030011;28;20550;-73
2021/08/30 11:41:54;;;;;;;1.30;1.27;;;18.40;98.00;;;;;;5039074;28;20556;-73
2021/08/30 11:44:23;;;;;;;1.20;1.20;;;18.70;98.00;;;;;;5046849;28;20950;-73
2021/08/30 11:46:54;;;;;;;1.80;1.60;;;18.80;98.00;;;;;;5047568;28;20936;-74
2021/08/30 11:49:22;;;;;;;2.47;1.60;;;19.10;98.00;;;;;;5033360;28;20485;-73
2021/08/30 11:51:49;;;;;;;1.50;1.50;;;19.40;98.00;;;;;;5041076;28;20566;-76
2021/08/30 11:54:18;;;;;;;2.40;1.40;;;19.70;98.00;;;;;;5038825;28;20458;-77
2021/08/30 11:56:57;;;;;;;2.37;1.77;;;19.70;98.00;;;;;;5049191;28;20461;-77
2021/08/30 11:59:36;;;;;;;2.50;1.37;;;19.40;98.00;;;;;;5036120;28;20804;-76
2021/08/30 12:02:05;;;;;;;2.00;1.70;;;19.50;98.00;;;;;;5032777;28;20450;-74
2021/08/30 12:04:34;;;;;;;1.77;1.43;;;19.70;98.00;;;;;;5031492;28;20454;-74
2021/08/30 12:07:03;;;;;;;2.47;1.90;;;20.00;98.00;;;;;;5031412;28;20576;-73
2021/08/30 12:09:44;;;;;;;1.70;1.33;;;20.10;98.00;;;;;;5031384;28;20969;-73
2021/08/30 12:12:18;;;;;;;2.33;1.70;;;20.00;98.00;;;;;;5031375;28;20979;-73
2021/08/30 12:14:57;;;;;;;1.53;1.43;;;20.10;98.00;;;;;;5031556;28;20459;-74
2021/08/30 12:17:26;;;;;;;1.97;1.67;;;20.20;98.00;;;;;;5031527;28;20486;-74
2021/08/30 12:19:54;;;;;;;1.67;1.57;;;20.20;98.00;;;;;;5031720;28;20454;-74
2021/08/30 12:22:28;;;;;;;1.60;1.40;;;20.10;98.00;;;;;;5035555;28;20454;-73
2021/08/30 12:25:06;;;;;;;1.63;1.30;;;20.20;98.00;;;;;;5035528;28;20489;-74
2021/08/30 12:27:34;;;;;;;1.67;1.40;;;20.30;98.00;;;;;;5035468;28;20454;-73
2021/08/30 12:30:19;;;;;;;2.80;1.43;;;20.00;98.00;;;;;;5035489;28;20482;-73
2021/08/30 12:33:08;;;;;;;3.73;1.53;;;19.50;98.00;;;;;;5035276;28;20473;-73
2021/08/30 12:35:36;;;;;;;1.50;1.50;;;19.60;98.00;;;;;;5035466;28;20542;-74
2021/08/30 12:38:06;;;;;;;1.50;1.40;;;19.70;98.00;;;;;;5035244;28;20454;-73
2021/08/30 12:40:35;;;;;;;1.70;1.30;;;19.80;98.00;;;;;;5035504;28;20517;-74
2021/08/30 12:43:02;;;;;;;2.80;1.20;;;19.80;98.00;;;;;;5035316;28;21018;-74
2021/08/30 12:45:31;;;;;;;1.50;1.40;;;19.70;98.00;;;;;;5035144;28;20941;-74
2021/08/30 12:47:58;;;;;;;1.43;1.40;;;19.70;98.00;;;;;;5034993;28;20496;-73
2021/08/30 12:50:26;;;;;;;2.67;1.60;;;19.50;98.00;;;;;;5034902;28;20494;-73
2021/08/30 12:52:53;;;;;;;1.47;1.40;;;19.20;98.00;;;;;;5034586;28;20446;-73
2021/08/30 12:55:20;;;;;;;1.20;1.03;;;18.90;98.00;;;;;;5034935;28;20477;-74
2021/08/30 12:57:47;;;;;;;1.43;1.40;;;18.70;98.00;;;;;;5034741;28;20501;-74
2021/08/30 13:00:16;;;;;;;1.50;1.30;;;18.70;98.00;;;;;;5034626;28;20929;-73